sensor_id;sensor_type;location;lat;lon;timestamp;temperature;humidity
13186;DHT22;6658;53.080;7.428;2023-06-10T00:02:07;15.90;99.90
13186;DHT22;6658;53.080;7.428;2023-06-10T00:04:33;15.90;99.90
13186;DHT22;6658;53.080;7.428;2023-06-10T00:06:59;15.90;99.90
13186;DHT22;6658;53.080;7.428;2023-06-10T00:09:25;15.80;99.90
13186;DHT22;6658;53.080;7.428;2023-06-10T00:11:51;15.70;99.90
13186;DHT22;6658;53.080;7.428;2023-06-10T00:14:16;15.60;99.90
13186;DHT22;6658;53.080;7.428;2023-06-10T00:16:42;15.60;99.90
13186;DHT22;6658;53.080;7.428;2023-06-10T00:19:10;15.60;99.90
13186;DHT22;6658;53.080;7.428;2023-06-10T00:21:39;15.60;99.90
13186;DHT22;6658;53.080;7.428;2023-06-10T00:24:07;15.50;99.90
13186;DHT22;6658;53.080;7.428;2023-06-10T00:26:38;15.40;99.90
13186;DHT22;6658;53.080;7.428;2023-06-10T00:29:04;15.40;99.90
13186;DHT22;6658;53.080;7.428;2023-06-10T00:31:30;15.40;99.90
13186;DHT22;6658;53.080;7.428;2023-06-10T00:33:56;15.40;99.90
13186;DHT22;6658;53.080;7.428;2023-06-10T00:36:22;15.30;99.90
13186;DHT22;6658;53.080;7.428;2023-06-10T00:38:47;15.30;99.90
13186;DHT22;6658;53.080;7.428;2023-06-10T00:41:14;15.30;99.90
13186;DHT22;6658;53.080;7.428;2023-06-10T00:43:39;15.30;99.90
13186;DHT22;6658;53.080;7.428;2023-06-10T00:46:05;15.20;99.90
13186;DHT22;6658;53.080;7.428;2023-06-10T00:48:31;15.10;99.90
13186;DHT22;6658;53.080;7.428;2023-06-10T00:50:58;15.10;99.90
13186;DHT22;6658;53.080;7.428;2023-06-10T00:53:25;15.10;99.90
13186;DHT22;6658;53.080;7.428;2023-06-10T00:55:51;15.00;99.90
13186;DHT22;6658;53.080;7.428;2023-06-10T00:58:18;14.90;99.90
13186;DHT22;6658;53.080;7.428;2023-06-10T01:00:43;14.90;99.90
13186;DHT22;6658;53.080;7.428;2023-06-10T01:03:11;14.80;99.90
13186;DHT22;6658;53.080;7.428;2023-06-10T01:05:38;14.80;99.90
13186;DHT22;6658;53.080;7.428;2023-06-10T01:08:09;14.80;99.90
13186;DHT22;6658;53.080;7.428;2023-06-10T01:10:56;14.70;99.90
13186;DHT22;6658;53.080;7.428;2023-06-10T01:13:23;14.70;99.90
13186;DHT22;6658;53.080;7.428;2023-06-10T01:15:57;14.60;99.90
13186;DHT22;6658;53.080;7.428;2023-06-10T01:18:29;14.60;99.90
13186;DHT22;6658;53.080;7.428;2023-06-10T01:20:56;14.50;99.90
13186;DHT22;6658;53.080;7.428;2023-06-10T01:23:22;14.50;99.90
13186;DHT22;6658;53.080;7.428;2023-06-10T01:25:53;14.50;99.90
13186;DHT22;6658;53.080;7.428;2023-06-10T01:28:33;14.40;99.90
13186;DHT22;6658;53.080;7.428;2023-06-10T01:33:46;14.30;99.90
13186;DHT22;6658;53.080;7.428;2023-06-10T01:36:15;14.30;99.90
13186;DHT22;6658;53.080;7.428;2023-06-10T01:38:46;14.30;99.90
13186;DHT22;6658;53.080;7.428;2023-06-10T01:41:14;14.20;99.90
13186;DHT22;6658;53.080;7.428;2023-06-10T01:43:43;14.10;99.90
13186;DHT22;6658;53.080;7.428;2023-06-10T01:46:09;14.10;99.90
13186;DHT22;6658;53.080;7.428;2023-06-10T01:48:35;14.00;99.90
13186;DHT22;6658;53.080;7.428;2023-06-10T01:51:01;14.00;99.90
13186;DHT22;6658;53.080;7.428;2023-06-10T01:53:26;14.00;99.90
13186;DHT22;6658;53.080;7.428;2023-06-10T01:55:52;13.90;99.90
13186;DHT22;6658;53.080;7.428;2023-06-10T01:58:18;13.90;99.90
13186;DHT22;6658;53.080;7.428;2023-06-10T02:00:43;13.80;99.90
13186;DHT22;6658;53.080;7.428;2023-06-10T02:03:09;13.80;99.90
13186;DHT22;6658;53.080;7.428;2023-06-10T02:05:35;13.80;99.90
13186;DHT22;6658;53.080;7.428;2023-06-10T02:08:00;13.70;99.90
13186;DHT22;6658;53.080;7.428;2023-06-10T02:10:26;13.60;99.90
13186;DHT22;6658;53.080;7.428;2023-06-10T02:12:52;13.50;99.90
13186;DHT22;6658;53.080;7.428;2023-06-10T02:15:18;13.50;99.90
13186;DHT22;6658;53.080;7.428;2023-06-10T02:17:43;13.40;99.90
13186;DHT22;6658;53.080;7.428;2023-06-10T02:20:10;13.40;99.90
13186;DHT22;6658;53.080;7.428;2023-06-10T02:22:37;13.30;99.90
13186;DHT22;6658;53.080;7.428;2023-06-10T02:25:04;13.30;99.90
13186;DHT22;6658;53.080;7.428;2023-06-10T02:27:30;13.20;99.90
13186;DHT22;6658;53.080;7.428;2023-06-10T02:29:57;13.20;99.90
13186;DHT22;6658;53.080;7.428;2023-06-10T02:32:23;13.10;99.90
13186;DHT22;6658;53.080;7.428;2023-06-10T02:34:48;13.10;99.90
13186;DHT22;6658;53.080;7.428;2023-06-10T02:37:15;13.00;99.90
13186;DHT22;6658;53.080;7.428;2023-06-10T02:39:41;13.00;99.90
13186;DHT22;6658;53.080;7.428;2023-06-10T02:42:07;12.90;99.90
13186;DHT22;6658;53.080;7.428;2023-06-10T02:44:33;12.80;99.90
13186;DHT22;6658;53.080;7.428;2023-06-10T02:46:58;12.80;99.90
13186;DHT22;6658;53.080;7.428;2023-06-10T02:49:24;12.70;99.90
13186;DHT22;6658;53.080;7.428;2023-06-10T02:51:50;12.70;99.90
13186;DHT22;6658;53.080;7.428;2023-06-10T02:54:25;12.60;99.90
13186;DHT22;6658;53.080;7.428;2023-06-10T02:56:52;12.60;99.90
13186;DHT22;6658;53.080;7.428;2023-06-10T02:59:18;12.50;99.90
13186;DHT22;6658;53.080;7.428;2023-06-10T03:01:45;12.50;99.90
13186;DHT22;6658;53.080;7.428;2023-06-10T03:04:11;12.50;99.90
13186;DHT22;6658;53.080;7.428;2023-06-10T03:06:39;12.50;99.90
13186;DHT22;6658;53.080;7.428;2023-06-10T03:09:06;12.50;99.90
13186;DHT22;6658;53.080;7.428;2023-06-10T03:11:35;12.50;99.90
13186;DHT22;6658;53.080;7.428;2023-06-10T03:14:01;12.40;99.90
13186;DHT22;6658;53.080;7.428;2023-06-10T03:16:27;12.40;99.90
13186;DHT22;6658;53.080;7.428;2023-06-10T03:18:53;12.40;99.90
13186;DHT22;6658;53.080;7.428;2023-06-10T03:21:19;12.40;99.90
13186;DHT22;6658;53.080;7.428;2023-06-10T03:23:45;12.40;99.90
13186;DHT22;6658;53.080;7.428;2023-06-10T03:26:11;12.40;99.90
13186;DHT22;6658;53.080;7.428;2023-06-10T03:28:38;12.40;99.90
13186;DHT22;6658;53.080;7.428;2023-06-10T03:31:04;12.50;99.90
13186;DHT22;6658;53.080;7.428;2023-06-10T03:33:31;12.50;99.90
13186;DHT22;6658;53.080;7.428;2023-06-10T03:35:56;12.50;99.90
13186;DHT22;6658;53.080;7.428;2023-06-10T03:38:22;12.50;99.90
13186;DHT22;6658;53.080;7.428;2023-06-10T03:40:48;12.50;99.90
13186;DHT22;6658;53.080;7.428;2023-06-10T03:43:13;12.60;99.90
13186;DHT22;6658;53.080;7.428;2023-06-10T03:45:39;12.60;99.90
13186;DHT22;6658;53.080;7.428;2023-06-10T03:48:06;12.60;99.90
13186;DHT22;6658;53.080;7.428;2023-06-10T03:50:33;12.70;99.90
13186;DHT22;6658;53.080;7.428;2023-06-10T03:53:02;12.70;99.90
13186;DHT22;6658;53.080;7.428;2023-06-10T03:55:28;12.70;99.90
13186;DHT22;6658;53.080;7.428;2023-06-10T03:57:53;12.80;99.90
13186;DHT22;6658;53.080;7.428;2023-06-10T04:00:19;12.80;99.90
13186;DHT22;6658;53.080;7.428;2023-06-10T04:02:47;12.90;99.90
13186;DHT22;6658;53.080;7.428;2023-06-10T04:05:19;12.90;99.90
13186;DHT22;6658;53.080;7.428;2023-06-10T04:07:47;13.00;99.90
13186;DHT22;6658;53.080;7.428;2023-06-10T04:10:14;13.00;99.90
13186;DHT22;6658;53.080;7.428;2023-06-10T04:12:40;13.00;99.90
13186;DHT22;6658;53.080;7.428;2023-06-10T04:15:07;13.10;99.90
13186;DHT22;6658;53.080;7.428;2023-06-10T04:17:32;13.20;99.90
13186;DHT22;6658;53.080;7.428;2023-06-10T04:19:58;13.30;99.90
13186;DHT22;6658;53.080;7.428;2023-06-10T04:22:24;13.40;99.90
13186;DHT22;6658;53.080;7.428;2023-06-10T04:24:50;13.60;99.90
13186;DHT22;6658;53.080;7.428;2023-06-10T04:27:15;13.70;99.90
13186;DHT22;6658;53.080;7.428;2023-06-10T04:29:41;13.70;99.90
13186;DHT22;6658;53.080;7.428;2023-06-10T04:32:07;13.80;99.90
13186;DHT22;6658;53.080;7.428;2023-06-10T04:34:33;13.80;99.90
13186;DHT22;6658;53.080;7.428;2023-06-10T04:36:59;13.80;99.90
13186;DHT22;6658;53.080;7.428;2023-06-10T04:39:25;13.90;99.90
13186;DHT22;6658;53.080;7.428;2023-06-10T04:41:51;13.90;99.90
13186;DHT22;6658;53.080;7.428;2023-06-10T04:44:17;13.90;99.90
13186;DHT22;6658;53.080;7.428;2023-06-10T04:46:44;13.90;99.90
13186;DHT22;6658;53.080;7.428;2023-06-10T04:49:09;14.00;99.90
13186;DHT22;6658;53.080;7.428;2023-06-10T04:51:35;14.00;99.90
13186;DHT22;6658;53.080;7.428;2023-06-10T04:54:01;14.10;99.90
13186;DHT22;6658;53.080;7.428;2023-06-10T04:56:30;14.00;99.90
13186;DHT22;6658;53.080;7.428;2023-06-10T04:58:59;14.10;99.90
13186;DHT22;6658;53.080;7.428;2023-06-10T05:01:25;14.20;99.90
13186;DHT22;6658;53.080;7.428;2023-06-10T05:03:51;14.20;99.90
13186;DHT22;6658;53.080;7.428;2023-06-10T05:06:17;14.30;99.90
13186;DHT22;6658;53.080;7.428;2023-06-10T05:08:43;14.50;99.90
13186;DHT22;6658;53.080;7.428;2023-06-10T05:11:08;14.70;99.90
13186;DHT22;6658;53.080;7.428;2023-06-10T05:13:34;14.80;99.90
13186;DHT22;6658;53.080;7.428;2023-06-10T05:16:00;14.80;99.90
13186;DHT22;6658;53.080;7.428;2023-06-10T05:18:26;15.10;99.90
13186;DHT22;6658;53.080;7.428;2023-06-10T05:20:52;15.60;99.90
13186;DHT22;6658;53.080;7.428;2023-06-10T05:23:19;15.90;99.90
13186;DHT22;6658;53.080;7.428;2023-06-10T05:25:46;16.20;99.90
13186;DHT22;6658;53.080;7.428;2023-06-10T05:28:12;16.40;99.90
13186;DHT22;6658;53.080;7.428;2023-06-10T05:30:38;16.50;99.90
13186;DHT22;6658;53.080;7.428;2023-06-10T05:33:04;16.70;99.90
13186;DHT22;6658;53.080;7.428;2023-06-10T05:35:30;17.20;99.90
13186;DHT22;6658;53.080;7.428;2023-06-10T05:37:56;17.50;99.90
13186;DHT22;6658;53.080;7.428;2023-06-10T05:40:22;17.60;99.90
13186;DHT22;6658;53.080;7.428;2023-06-10T05:42:48;17.60;99.90
13186;DHT22;6658;53.080;7.428;2023-06-10T05:45:13;17.60;99.90
13186;DHT22;6658;53.080;7.428;2023-06-10T05:47:39;17.70;99.90
13186;DHT22;6658;53.080;7.428;2023-06-10T05:50:06;18.10;99.90
13186;DHT22;6658;53.080;7.428;2023-06-10T05:52:36;18.20;99.90
13186;DHT22;6658;53.080;7.428;2023-06-10T05:55:05;18.40;99.90
13186;DHT22;6658;53.080;7.428;2023-06-10T05:57:31;18.40;99.90
13186;DHT22;6658;53.080;7.428;2023-06-10T05:59:56;18.50;99.90
13186;DHT22;6658;53.080;7.428;2023-06-10T06:02:22;18.60;99.90
13186;DHT22;6658;53.080;7.428;2023-06-10T06:04:48;18.80;99.90
13186;DHT22;6658;53.080;7.428;2023-06-10T06:07:14;19.20;99.90
13186;DHT22;6658;53.080;7.428;2023-06-10T06:09:40;19.20;99.90
13186;DHT22;6658;53.080;7.428;2023-06-10T06:12:06;19.30;99.90
13186;DHT22;6658;53.080;7.428;2023-06-10T06:14:37;19.40;99.90
13186;DHT22;6658;53.080;7.428;2023-06-10T06:17:05;19.40;99.90
13186;DHT22;6658;53.080;7.428;2023-06-10T06:19:31;19.10;99.90
13186;DHT22;6658;53.080;7.428;2023-06-10T06:21:57;19.50;99.90
13186;DHT22;6658;53.080;7.428;2023-06-10T06:24:22;19.40;99.90
13186;DHT22;6658;53.080;7.428;2023-06-10T06:26:48;19.60;99.90
13186;DHT22;6658;53.080;7.428;2023-06-10T06:29:14;19.70;99.90
13186;DHT22;6658;53.080;7.428;2023-06-10T06:31:39;19.80;99.90
13186;DHT22;6658;53.080;7.428;2023-06-10T06:34:05;19.50;99.90
13186;DHT22;6658;53.080;7.428;2023-06-10T06:36:31;19.30;99.90
13186;DHT22;6658;53.080;7.428;2023-06-10T06:38:56;19.40;99.90
13186;DHT22;6658;53.080;7.428;2023-06-10T06:41:25;19.40;99.90
13186;DHT22;6658;53.080;7.428;2023-06-10T06:43:51;19.70;99.90
13186;DHT22;6658;53.080;7.428;2023-06-10T06:46:17;19.90;99.90
13186;DHT22;6658;53.080;7.428;2023-06-10T06:48:43;19.90;99.90
13186;DHT22;6658;53.080;7.428;2023-06-10T06:51:08;19.90;99.90
13186;DHT22;6658;53.080;7.428;2023-06-10T06:53:34;19.60;99.90
13186;DHT22;6658;53.080;7.428;2023-06-10T06:56:01;19.50;99.90
13186;DHT22;6658;53.080;7.428;2023-06-10T06:58:27;19.30;99.90
13186;DHT22;6658;53.080;7.428;2023-06-10T07:00:53;19.30;99.90
13186;DHT22;6658;53.080;7.428;2023-06-10T07:03:19;19.60;99.90
13186;DHT22;6658;53.080;7.428;2023-06-10T07:05:45;19.70;99.90
13186;DHT22;6658;53.080;7.428;2023-06-10T07:08:10;20.10;99.90
13186;DHT22;6658;53.080;7.428;2023-06-10T07:10:37;20.30;99.90
13186;DHT22;6658;53.080;7.428;2023-06-10T07:13:03;20.70;99.90
13186;DHT22;6658;53.080;7.428;2023-06-10T07:15:28;20.70;99.90
13186;DHT22;6658;53.080;7.428;2023-06-10T07:17:54;20.80;99.90
13186;DHT22;6658;53.080;7.428;2023-06-10T07:20:21;21.10;99.90
13186;DHT22;6658;53.080;7.428;2023-06-10T07:22:46;21.10;99.90
13186;DHT22;6658;53.080;7.428;2023-06-10T07:25:12;21.10;99.90
13186;DHT22;6658;53.080;7.428;2023-06-10T07:27:38;21.20;99.90
13186;DHT22;6658;53.080;7.428;2023-06-10T07:30:07;21.10;99.90
13186;DHT22;6658;53.080;7.428;2023-06-10T07:32:34;21.50;99.90
13186;DHT22;6658;53.080;7.428;2023-06-10T07:34:59;21.50;99.90
13186;DHT22;6658;53.080;7.428;2023-06-10T07:37:25;21.90;99.90
13186;DHT22;6658;53.080;7.428;2023-06-10T07:39:51;22.10;99.90
13186;DHT22;6658;53.080;7.428;2023-06-10T07:42:17;22.40;99.90
13186;DHT22;6658;53.080;7.428;2023-06-10T07:44:42;22.60;99.90
13186;DHT22;6658;53.080;7.428;2023-06-10T07:47:08;22.60;99.90
13186;DHT22;6658;53.080;7.428;2023-06-10T07:49:34;22.60;99.90
13186;DHT22;6658;53.080;7.428;2023-06-10T07:51:59;22.70;99.90
13186;DHT22;6658;53.080;7.428;2023-06-10T07:54:25;22.60;99.90
13186;DHT22;6658;53.080;7.428;2023-06-10T07:56:51;22.60;99.90
13186;DHT22;6658;53.080;7.428;2023-06-10T07:59:18;22.60;99.90
13186;DHT22;6658;53.080;7.428;2023-06-10T08:01:44;22.70;99.90
13186;DHT22;6658;53.080;7.428;2023-06-10T08:04:09;22.70;99.90
13186;DHT22;6658;53.080;7.428;2023-06-10T08:06:35;22.70;99.90
13186;DHT22;6658;53.080;7.428;2023-06-10T08:09:02;22.80;99.90
13186;DHT22;6658;53.080;7.428;2023-06-10T08:11:28;22.70;99.90
13186;DHT22;6658;53.080;7.428;2023-06-10T08:13:55;22.80;99.90
13186;DHT22;6658;53.080;7.428;2023-06-10T08:16:20;22.70;99.90
13186;DHT22;6658;53.080;7.428;2023-06-10T08:18:46;22.60;99.90
13186;DHT22;6658;53.080;7.428;2023-06-10T08:21:12;22.80;99.90
13186;DHT22;6658;53.080;7.428;2023-06-10T08:23:37;22.90;99.90
13186;DHT22;6658;53.080;7.428;2023-06-10T08:26:03;22.80;99.90
13186;DHT22;6658;53.080;7.428;2023-06-10T08:28:29;23.20;99.90
13186;DHT22;6658;53.080;7.428;2023-06-10T08:30:55;23.60;99.90
13186;DHT22;6658;53.080;7.428;2023-06-10T08:33:20;23.80;99.90
13186;DHT22;6658;53.080;7.428;2023-06-10T08:35:46;23.90;99.90
13186;DHT22;6658;53.080;7.428;2023-06-10T08:38:11;24.00;99.90
13186;DHT22;6658;53.080;7.428;2023-06-10T08:40:37;24.20;99.90
13186;DHT22;6658;53.080;7.428;2023-06-10T08:43:07;24.40;99.90
13186;DHT22;6658;53.080;7.428;2023-06-10T08:45:35;24.70;99.90
13186;DHT22;6658;53.080;7.428;2023-06-10T08:48:05;24.70;99.90
13186;DHT22;6658;53.080;7.428;2023-06-10T08:50:35;24.90;99.90
13186;DHT22;6658;53.080;7.428;2023-06-10T08:53:04;24.90;99.90
13186;DHT22;6658;53.080;7.428;2023-06-10T08:55:33;25.00;99.90
13186;DHT22;6658;53.080;7.428;2023-06-10T08:58:00;25.30;99.90
13186;DHT22;6658;53.080;7.428;2023-06-10T09:00:26;25.70;99.90
13186;DHT22;6658;53.080;7.428;2023-06-10T09:02:53;26.20;99.90
13186;DHT22;6658;53.080;7.428;2023-06-10T09:05:19;26.10;99.90
13186;DHT22;6658;53.080;7.428;2023-06-10T09:07:47;25.70;99.90
13186;DHT22;6658;53.080;7.428;2023-06-10T09:10:13;25.40;99.90
13186;DHT22;6658;53.080;7.428;2023-06-10T09:12:39;25.40;99.90
13186;DHT22;6658;53.080;7.428;2023-06-10T09:15:06;25.50;99.90
13186;DHT22;6658;53.080;7.428;2023-06-10T09:17:32;25.70;99.90
13186;DHT22;6658;53.080;7.428;2023-06-10T09:19:59;26.00;99.90
13186;DHT22;6658;53.080;7.428;2023-06-10T09:22:25;26.20;99.90
13186;DHT22;6658;53.080;7.428;2023-06-10T09:25:05;26.60;99.90
13186;DHT22;6658;53.080;7.428;2023-06-10T09:30:24;26.20;99.90
13186;DHT22;6658;53.080;7.428;2023-06-10T09:32:53;26.70;99.90
13186;DHT22;6658;53.080;7.428;2023-06-10T09:35:18;26.60;99.70
13186;DHT22;6658;53.080;7.428;2023-06-10T09:37:44;26.40;99.90
13186;DHT22;6658;53.080;7.428;2023-06-10T09:40:13;26.90;99.90
13186;DHT22;6658;53.080;7.428;2023-06-10T09:42:43;27.10;99.60
13186;DHT22;6658;53.080;7.428;2023-06-10T09:45:08;27.70;99.40
13186;DHT22;6658;53.080;7.428;2023-06-10T09:47:34;28.50;97.90
13186;DHT22;6658;53.080;7.428;2023-06-10T09:50:00;28.50;97.00
13186;DHT22;6658;53.080;7.428;2023-06-10T09:52:27;28.70;96.70
13186;DHT22;6658;53.080;7.428;2023-06-10T09:55:01;28.60;96.80
13186;DHT22;6658;53.080;7.428;2023-06-10T09:57:31;29.10;95.10
13186;DHT22;6658;53.080;7.428;2023-06-10T10:00:11;29.30;93.30
13186;DHT22;6658;53.080;7.428;2023-06-10T10:02:50;28.70;95.80
13186;DHT22;6658;53.080;7.428;2023-06-10T10:05:23;28.70;95.10
13186;DHT22;6658;53.080;7.428;2023-06-10T10:07:49;28.80;92.90
13186;DHT22;6658;53.080;7.428;2023-06-10T10:10:16;29.10;91.80
13186;DHT22;6658;53.080;7.428;2023-06-10T10:12:55;29.40;90.80
13186;DHT22;6658;53.080;7.428;2023-06-10T10:15:32;29.40;92.00
13186;DHT22;6658;53.080;7.428;2023-06-10T10:18:07;29.70;90.80
13186;DHT22;6658;53.080;7.428;2023-06-10T10:20:40;29.50;92.10
13186;DHT22;6658;53.080;7.428;2023-06-10T10:23:08;29.90;91.80
13186;DHT22;6658;53.080;7.428;2023-06-10T10:25:42;29.60;90.00
13186;DHT22;6658;53.080;7.428;2023-06-10T10:28:12;29.80;90.20
13186;DHT22;6658;53.080;7.428;2023-06-10T10:31:05;29.80;90.50
13186;DHT22;6658;53.080;7.428;2023-06-10T10:33:45;29.70;89.20
13186;DHT22;6658;53.080;7.428;2023-06-10T10:36:21;30.10;86.70
13186;DHT22;6658;53.080;7.428;2023-06-10T10:38:51;29.80;88.90
13186;DHT22;6658;53.080;7.428;2023-06-10T10:41:18;30.00;88.90
13186;DHT22;6658;53.080;7.428;2023-06-10T10:43:52;30.00;86.90
13186;DHT22;6658;53.080;7.428;2023-06-10T10:46:18;29.80;85.80
13186;DHT22;6658;53.080;7.428;2023-06-10T10:48:45;29.60;86.30
13186;DHT22;6658;53.080;7.428;2023-06-10T10:51:11;29.90;88.40
13186;DHT22;6658;53.080;7.428;2023-06-10T10:53:40;29.30;89.40
13186;DHT22;6658;53.080;7.428;2023-06-10T10:56:07;28.20;86.10
13186;DHT22;6658;53.080;7.428;2023-06-10T10:58:39;27.60;91.50
13186;DHT22;6658;53.080;7.428;2023-06-10T11:01:12;27.70;91.40
13186;DHT22;6658;53.080;7.428;2023-06-10T11:03:43;27.80;91.00
13186;DHT22;6658;53.080;7.428;2023-06-10T11:06:14;27.90;91.80
13186;DHT22;6658;53.080;7.428;2023-06-10T11:11:25;27.30;92.30
13186;DHT22;6658;53.080;7.428;2023-06-10T11:16:41;27.00;93.90
13186;DHT22;6658;53.080;7.428;2023-06-10T11:19:36;27.20;92.60
13186;DHT22;6658;53.080;7.428;2023-06-10T11:22:07;27.30;93.50
13186;DHT22;6658;53.080;7.428;2023-06-10T11:24:33;26.90;94.30
13186;DHT22;6658;53.080;7.428;2023-06-10T11:27:21;26.70;95.20
13186;DHT22;6658;53.080;7.428;2023-06-10T11:32:34;27.10;94.20
13186;DHT22;6658;53.080;7.428;2023-06-10T11:35:03;27.10;94.60
13186;DHT22;6658;53.080;7.428;2023-06-10T11:37:29;27.20;94.00
13186;DHT22;6658;53.080;7.428;2023-06-10T11:39:55;27.20;93.60
13186;DHT22;6658;53.080;7.428;2023-06-10T11:42:24;27.50;92.50
13186;DHT22;6658;53.080;7.428;2023-06-10T11:44:51;28.30;92.20
13186;DHT22;6658;53.080;7.428;2023-06-10T11:47:18;28.80;90.60
13186;DHT22;6658;53.080;7.428;2023-06-10T11:49:45;29.40;89.40
13186;DHT22;6658;53.080;7.428;2023-06-10T11:52:12;29.00;89.50
13186;DHT22;6658;53.080;7.428;2023-06-10T11:54:38;28.70;89.20
13186;DHT22;6658;53.080;7.428;2023-06-10T11:57:04;28.50;86.10
13186;DHT22;6658;53.080;7.428;2023-06-10T11:59:30;28.40;89.30
13186;DHT22;6658;53.080;7.428;2023-06-10T12:01:56;28.40;87.00
13186;DHT22;6658;53.080;7.428;2023-06-10T12:04:22;28.60;82.00
13186;DHT22;6658;53.080;7.428;2023-06-10T12:06:50;28.80;86.80
13186;DHT22;6658;53.080;7.428;2023-06-10T12:09:28;28.90;90.00
13186;DHT22;6658;53.080;7.428;2023-06-10T12:12:04;29.70;83.50
13186;DHT22;6658;53.080;7.428;2023-06-10T12:14:56;29.90;85.10
13186;DHT22;6658;53.080;7.428;2023-06-10T12:17:35;30.10;85.50
13186;DHT22;6658;53.080;7.428;2023-06-10T12:20:07;29.90;87.80
13186;DHT22;6658;53.080;7.428;2023-06-10T12:22:42;30.00;87.90
13186;DHT22;6658;53.080;7.428;2023-06-10T12:25:09;29.60;88.60
13186;DHT22;6658;53.080;7.428;2023-06-10T12:27:36;28.80;88.50
13186;DHT22;6658;53.080;7.428;2023-06-10T12:30:04;28.40;90.20
13186;DHT22;6658;53.080;7.428;2023-06-10T12:35:04;28.30;91.20
13186;DHT22;6658;53.080;7.428;2023-06-10T12:37:30;28.10;93.10
13186;DHT22;6658;53.080;7.428;2023-06-10T12:40:00;28.10;91.70
13186;DHT22;6658;53.080;7.428;2023-06-10T12:42:28;27.70;92.80
13186;DHT22;6658;53.080;7.428;2023-06-10T12:44:55;27.70;94.60
13186;DHT22;6658;53.080;7.428;2023-06-10T12:47:33;27.60;93.70
13186;DHT22;6658;53.080;7.428;2023-06-10T12:50:03;27.40;93.00
13186;DHT22;6658;53.080;7.428;2023-06-10T12:52:29;27.20;91.10
13186;DHT22;6658;53.080;7.428;2023-06-10T12:54:55;27.10;93.10
13186;DHT22;6658;53.080;7.428;2023-06-10T12:57:22;27.00;92.90
13186;DHT22;6658;53.080;7.428;2023-06-10T12:59:48;26.90;92.70
13186;DHT22;6658;53.080;7.428;2023-06-10T13:02:25;26.90;93.20
13186;DHT22;6658;53.080;7.428;2023-06-10T13:04:51;26.60;93.70
13186;DHT22;6658;53.080;7.428;2023-06-10T13:07:17;26.70;93.70
13186;DHT22;6658;53.080;7.428;2023-06-10T13:09:43;26.70;94.10
13186;DHT22;6658;53.080;7.428;2023-06-10T13:12:09;26.80;94.20
13186;DHT22;6658;53.080;7.428;2023-06-10T13:14:36;26.70;94.50
13186;DHT22;6658;53.080;7.428;2023-06-10T13:17:03;26.60;90.60
13186;DHT22;6658;53.080;7.428;2023-06-10T13:19:31;26.40;91.00
13186;DHT22;6658;53.080;7.428;2023-06-10T13:21:57;26.40;91.30
13186;DHT22;6658;53.080;7.428;2023-06-10T13:24:23;26.30;91.30
13186;DHT22;6658;53.080;7.428;2023-06-10T13:26:49;26.20;92.00
13186;DHT22;6658;53.080;7.428;2023-06-10T13:29:14;26.10;92.80
13186;DHT22;6658;53.080;7.428;2023-06-10T13:31:40;26.20;86.00
13186;DHT22;6658;53.080;7.428;2023-06-10T13:34:06;26.20;85.10
13186;DHT22;6658;53.080;7.428;2023-06-10T13:36:32;26.20;87.30
13186;DHT22;6658;53.080;7.428;2023-06-10T13:38:58;26.30;90.50
13186;DHT22;6658;53.080;7.428;2023-06-10T13:41:24;26.40;88.50
13186;DHT22;6658;53.080;7.428;2023-06-10T13:43:50;26.50;84.70
13186;DHT22;6658;53.080;7.428;2023-06-10T13:46:16;26.50;89.00
13186;DHT22;6658;53.080;7.428;2023-06-10T13:48:43;26.50;84.40
13186;DHT22;6658;53.080;7.428;2023-06-10T13:51:09;26.50;85.50
13186;DHT22;6658;53.080;7.428;2023-06-10T13:53:35;26.60;84.30
13186;DHT22;6658;53.080;7.428;2023-06-10T13:56:01;26.60;85.90
13186;DHT22;6658;53.080;7.428;2023-06-10T13:58:27;26.60;85.10
13186;DHT22;6658;53.080;7.428;2023-06-10T14:00:53;26.70;88.10
13186;DHT22;6658;53.080;7.428;2023-06-10T14:03:19;26.70;88.60
13186;DHT22;6658;53.080;7.428;2023-06-10T14:05:44;26.60;85.80
13186;DHT22;6658;53.080;7.428;2023-06-10T14:08:10;26.60;86.10
13186;DHT22;6658;53.080;7.428;2023-06-10T14:10:36;26.60;82.50
13186;DHT22;6658;53.080;7.428;2023-06-10T14:13:01;26.60;84.50
13186;DHT22;6658;53.080;7.428;2023-06-10T14:15:27;26.80;84.80
13186;DHT22;6658;53.080;7.428;2023-06-10T14:17:53;26.70;84.70
13186;DHT22;6658;53.080;7.428;2023-06-10T14:20:18;26.70;84.60
13186;DHT22;6658;53.080;7.428;2023-06-10T14:22:44;26.80;77.50
13186;DHT22;6658;53.080;7.428;2023-06-10T14:25:10;26.70;84.70
13186;DHT22;6658;53.080;7.428;2023-06-10T14:27:36;26.60;84.00
13186;DHT22;6658;53.080;7.428;2023-06-10T14:30:02;26.60;83.50
13186;DHT22;6658;53.080;7.428;2023-06-10T14:32:29;26.70;80.30
13186;DHT22;6658;53.080;7.428;2023-06-10T14:34:55;26.70;79.20
13186;DHT22;6658;53.080;7.428;2023-06-10T14:37:21;26.80;81.80
13186;DHT22;6658;53.080;7.428;2023-06-10T14:39:46;26.80;77.40
13186;DHT22;6658;53.080;7.428;2023-06-10T14:42:12;26.90;78.60
13186;DHT22;6658;53.080;7.428;2023-06-10T14:44:38;26.90;78.40
13186;DHT22;6658;53.080;7.428;2023-06-10T14:47:04;26.90;77.90
13186;DHT22;6658;53.080;7.428;2023-06-10T14:49:30;26.80;79.20
13186;DHT22;6658;53.080;7.428;2023-06-10T14:51:55;26.90;75.50
13186;DHT22;6658;53.080;7.428;2023-06-10T14:54:21;26.90;70.90
13186;DHT22;6658;53.080;7.428;2023-06-10T14:56:47;27.00;71.50
13186;DHT22;6658;53.080;7.428;2023-06-10T14:59:13;27.00;68.70
13186;DHT22;6658;53.080;7.428;2023-06-10T15:01:39;27.00;68.00
13186;DHT22;6658;53.080;7.428;2023-06-10T15:04:04;27.10;69.10
13186;DHT22;6658;53.080;7.428;2023-06-10T15:06:30;27.10;69.60
13186;DHT22;6658;53.080;7.428;2023-06-10T15:08:56;27.00;70.20
13186;DHT22;6658;53.080;7.428;2023-06-10T15:11:21;27.00;70.80
13186;DHT22;6658;53.080;7.428;2023-06-10T15:13:47;27.10;71.40
13186;DHT22;6658;53.080;7.428;2023-06-10T15:16:13;27.10;70.40
13186;DHT22;6658;53.080;7.428;2023-06-10T15:18:40;27.20;68.50
13186;DHT22;6658;53.080;7.428;2023-06-10T15:21:06;27.10;67.50
13186;DHT22;6658;53.080;7.428;2023-06-10T15:23:31;27.10;67.20
13186;DHT22;6658;53.080;7.428;2023-06-10T15:25:57;27.10;67.20
13186;DHT22;6658;53.080;7.428;2023-06-10T15:28:23;27.20;66.50
13186;DHT22;6658;53.080;7.428;2023-06-10T15:30:49;27.20;65.40
13186;DHT22;6658;53.080;7.428;2023-06-10T15:33:14;27.20;66.10
13186;DHT22;6658;53.080;7.428;2023-06-10T15:35:40;27.20;64.70
13186;DHT22;6658;53.080;7.428;2023-06-10T15:38:06;27.20;64.00
13186;DHT22;6658;53.080;7.428;2023-06-10T15:40:31;27.10;64.40
13186;DHT22;6658;53.080;7.428;2023-06-10T15:42:57;27.20;63.70
13186;DHT22;6658;53.080;7.428;2023-06-10T15:45:23;27.10;64.40
13186;DHT22;6658;53.080;7.428;2023-06-10T15:47:48;27.10;64.20
13186;DHT22;6658;53.080;7.428;2023-06-10T15:50:14;27.20;66.00
13186;DHT22;6658;53.080;7.428;2023-06-10T15:52:40;27.20;63.20
13186;DHT22;6658;53.080;7.428;2023-06-10T15:55:05;27.10;62.30
13186;DHT22;6658;53.080;7.428;2023-06-10T15:57:31;27.10;62.40
13186;DHT22;6658;53.080;7.428;2023-06-10T15:59:57;27.10;63.10
13186;DHT22;6658;53.080;7.428;2023-06-10T16:02:22;27.10;62.90